KLFT/LFT METAR and TAF weather

Enter ICAO airport designator
Station Type Date Time Source
KLFT METAR 2019/04/19 07:53 UTC NOAA

KLFT 190753Z AUTO 33008KT 10SM CLR 14/11 A2980 RMK AO2 SLP092 T01440111


Station Type Date Time Source
KLFT Decoded METAR 2019/04/19 07:53 UTC NOAA

LAFAYETTE REGIONAL AIRPORT, LA, United States (KLFT) 30-12N 092-00W 11M
Apr 19, 2019 - 03:53 AM EDT / 2019.04.19 0753 UTC
Wind: from the NNW (330 degrees) at 9 MPH (8 KT):0
Visibility: 10 mile(s):0
Sky conditions: clear
Temperature: 57.9 F (14.4 C)
Dew Point: 52.0 F (11.1 C)
Relative Humidity: 80%
Pressure (altimeter): 29.8 in. Hg (1009 hPa)
ob: KLFT 190753Z AUTO 33008KT 10SM CLR 14/11 A2980 RMK AO2 SLP092 T01440111
cycle: 8

Station Type Date Time Source
KLFT TAF 2019/04/19 06:22 UTC NOAA

TAF KLFT 190520Z 1906/2006 32020G30KT P6SM SCT025 OVC035
FM190700 32010KT P6SM SKC
FM191500 32016G24KT P6SM SKC
FM191800 32021G31KT P6SM SKC
FM200000 32008KT P6SM SKC

Example: see airport list